sensor_id;sensor_type;location;lat;lon;timestamp;P1;durP1;ratioP1;P2;durP2;ratioP2
4323;SDS011;2175;51.018;6.994;2023-03-13T00:00:59;17.73;;;4.90;;
4323;SDS011;2175;51.018;6.994;2023-03-13T00:03:26;22.77;;;5.03;;
4323;SDS011;2175;51.018;6.994;2023-03-13T00:06:00;20.23;;;5.07;;
4323;SDS011;2175;51.018;6.994;2023-03-13T00:08:29;18.53;;;4.77;;
4323;SDS011;2175;51.018;6.994;2023-03-13T00:10:54;24.40;;;6.40;;
4323;SDS011;2175;51.018;6.994;2023-03-13T00:13:20;24.20;;;4.90;;
4323;SDS011;2175;51.018;6.994;2023-03-13T00:15:46;17.77;;;5.80;;
4323;SDS011;2175;51.018;6.994;2023-03-13T00:18:12;25.40;;;5.60;;
4323;SDS011;2175;51.018;6.994;2023-03-13T00:23:25;22.80;;;5.33;;
4323;SDS011;2175;51.018;6.994;2023-03-13T00:25:59;24.20;;;5.80;;
4323;SDS011;2175;51.018;6.994;2023-03-13T00:28:30;29.80;;;5.43;;
4323;SDS011;2175;51.018;6.994;2023-03-13T00:33:46;20.80;;;4.90;;
4323;SDS011;2175;51.018;6.994;2023-03-13T00:36:14;28.27;;;4.40;;
4323;SDS011;2175;51.018;6.994;2023-03-13T00:38:47;25.17;;;5.23;;
4323;SDS011;2175;51.018;6.994;2023-03-13T00:41:18;26.37;;;4.30;;
4323;SDS011;2175;51.018;6.994;2023-03-13T00:43:47;17.40;;;4.20;;
4323;SDS011;2175;51.018;6.994;2023-03-13T00:46:14;21.20;;;3.93;;
4323;SDS011;2175;51.018;6.994;2023-03-13T00:48:41;20.57;;;5.07;;
4323;SDS011;2175;51.018;6.994;2023-03-13T00:51:07;28.57;;;5.30;;
4323;SDS011;2175;51.018;6.994;2023-03-13T00:53:33;31.60;;;5.60;;
4323;SDS011;2175;51.018;6.994;2023-03-13T00:56:00;23.63;;;5.07;;
4323;SDS011;2175;51.018;6.994;2023-03-13T00:58:28;35.03;;;6.10;;
4323;SDS011;2175;51.018;6.994;2023-03-13T01:00:55;23.00;;;4.10;;
4323;SDS011;2175;51.018;6.994;2023-03-13T01:03:22;23.37;;;5.00;;
4323;SDS011;2175;51.018;6.994;2023-03-13T01:05:57;17.37;;;4.73;;
4323;SDS011;2175;51.018;6.994;2023-03-13T01:08:24;19.80;;;4.97;;
4323;SDS011;2175;51.018;6.994;2023-03-13T01:11:02;16.77;;;4.87;;
4323;SDS011;2175;51.018;6.994;2023-03-13T01:13:33;22.03;;;4.50;;
4323;SDS011;2175;51.018;6.994;2023-03-13T01:16:05;30.37;;;5.40;;
4323;SDS011;2175;51.018;6.994;2023-03-13T01:18:32;20.90;;;4.47;;
4323;SDS011;2175;51.018;6.994;2023-03-13T01:20:59;20.97;;;5.47;;
4323;SDS011;2175;51.018;6.994;2023-03-13T01:23:25;27.23;;;4.97;;
4323;SDS011;2175;51.018;6.994;2023-03-13T01:25:51;21.87;;;4.70;;
4323;SDS011;2175;51.018;6.994;2023-03-13T01:31:35;25.43;;;5.13;;
4323;SDS011;2175;51.018;6.994;2023-03-13T01:34:02;20.27;;;5.23;;
4323;SDS011;2175;51.018;6.994;2023-03-13T01:36:29;17.63;;;4.37;;
4323;SDS011;2175;51.018;6.994;2023-03-13T01:38:55;19.20;;;4.53;;
4323;SDS011;2175;51.018;6.994;2023-03-13T01:41:22;27.97;;;5.13;;
4323;SDS011;2175;51.018;6.994;2023-03-13T01:43:48;25.73;;;5.10;;
4323;SDS011;2175;51.018;6.994;2023-03-13T01:46:27;21.63;;;4.67;;
4323;SDS011;2175;51.018;6.994;2023-03-13T01:48:58;24.37;;;5.03;;
4323;SDS011;2175;51.018;6.994;2023-03-13T01:59:30;19.93;;;5.60;;
4323;SDS011;2175;51.018;6.994;2023-03-13T02:01:59;21.17;;;5.40;;
4323;SDS011;2175;51.018;6.994;2023-03-13T02:04:29;24.83;;;6.10;;
4323;SDS011;2175;51.018;6.994;2023-03-13T02:07:00;20.80;;;4.83;;
4323;SDS011;2175;51.018;6.994;2023-03-13T02:09:32;17.23;;;4.93;;
4323;SDS011;2175;51.018;6.994;2023-03-13T02:12:01;16.83;;;3.67;;
4323;SDS011;2175;51.018;6.994;2023-03-13T02:14:36;16.73;;;4.10;;
4323;SDS011;2175;51.018;6.994;2023-03-13T02:17:03;17.43;;;3.30;;
4323;SDS011;2175;51.018;6.994;2023-03-13T02:22:27;11.00;;;3.23;;
4323;SDS011;2175;51.018;6.994;2023-03-13T02:27:57;13.90;;;3.70;;
4323;SDS011;2175;51.018;6.994;2023-03-13T02:30:27;15.83;;;3.13;;
4323;SDS011;2175;51.018;6.994;2023-03-13T02:33:04;9.37;;;3.00;;
4323;SDS011;2175;51.018;6.994;2023-03-13T02:35:30;10.77;;;2.57;;
4323;SDS011;2175;51.018;6.994;2023-03-13T02:37:58;18.00;;;3.73;;
4323;SDS011;2175;51.018;6.994;2023-03-13T02:40:32;9.10;;;2.73;;
4323;SDS011;2175;51.018;6.994;2023-03-13T02:43:02;11.13;;;2.70;;
4323;SDS011;2175;51.018;6.994;2023-03-13T02:45:33;12.53;;;3.27;;
4323;SDS011;2175;51.018;6.994;2023-03-13T02:47:58;9.90;;;2.70;;
4323;SDS011;2175;51.018;6.994;2023-03-13T02:50:24;9.13;;;2.30;;
4323;SDS011;2175;51.018;6.994;2023-03-13T02:52:52;11.80;;;2.87;;
4323;SDS011;2175;51.018;6.994;2023-03-13T02:55:23;5.73;;;2.40;;
4323;SDS011;2175;51.018;6.994;2023-03-13T02:58:11;12.60;;;2.70;;
4323;SDS011;2175;51.018;6.994;2023-03-13T03:00:37;9.30;;;1.93;;
4323;SDS011;2175;51.018;6.994;2023-03-13T03:03:02;10.53;;;3.13;;
4323;SDS011;2175;51.018;6.994;2023-03-13T03:05:31;10.80;;;2.43;;
4323;SDS011;2175;51.018;6.994;2023-03-13T03:07:59;7.87;;;2.27;;
4323;SDS011;2175;51.018;6.994;2023-03-13T03:10:31;7.80;;;1.93;;
4323;SDS011;2175;51.018;6.994;2023-03-13T03:13:00;5.70;;;2.00;;
4323;SDS011;2175;51.018;6.994;2023-03-13T03:15:26;6.33;;;2.07;;
4323;SDS011;2175;51.018;6.994;2023-03-13T03:18:03;11.00;;;2.23;;
4323;SDS011;2175;51.018;6.994;2023-03-13T03:20:31;4.57;;;1.80;;
4323;SDS011;2175;51.018;6.994;2023-03-13T03:22:57;6.20;;;1.60;;
4323;SDS011;2175;51.018;6.994;2023-03-13T03:25:26;8.70;;;2.03;;
4323;SDS011;2175;51.018;6.994;2023-03-13T03:27:51;4.40;;;1.50;;
4323;SDS011;2175;51.018;6.994;2023-03-13T03:30:17;5.23;;;1.67;;
4323;SDS011;2175;51.018;6.994;2023-03-13T03:32:42;5.90;;;1.83;;
4323;SDS011;2175;51.018;6.994;2023-03-13T03:35:12;5.00;;;1.90;;
4323;SDS011;2175;51.018;6.994;2023-03-13T03:37:38;5.20;;;1.90;;
4323;SDS011;2175;51.018;6.994;2023-03-13T03:42:34;3.90;;;1.37;;
4323;SDS011;2175;51.018;6.994;2023-03-13T03:44:59;5.67;;;1.70;;
4323;SDS011;2175;51.018;6.994;2023-03-13T03:47:25;3.73;;;1.50;;
4323;SDS011;2175;51.018;6.994;2023-03-13T03:49:50;7.70;;;1.77;;
4323;SDS011;2175;51.018;6.994;2023-03-13T03:52:16;3.70;;;1.60;;
4323;SDS011;2175;51.018;6.994;2023-03-13T03:54:43;5.03;;;1.07;;
4323;SDS011;2175;51.018;6.994;2023-03-13T03:57:08;3.93;;;1.63;;
4323;SDS011;2175;51.018;6.994;2023-03-13T03:59:34;7.13;;;2.10;;
4323;SDS011;2175;51.018;6.994;2023-03-13T04:01:59;4.93;;;1.90;;
4323;SDS011;2175;51.018;6.994;2023-03-13T04:04:25;2.80;;;1.40;;
4323;SDS011;2175;51.018;6.994;2023-03-13T04:06:51;1.87;;;1.00;;
4323;SDS011;2175;51.018;6.994;2023-03-13T04:09:17;3.10;;;1.40;;
4323;SDS011;2175;51.018;6.994;2023-03-13T04:11:49;3.67;;;1.40;;
4323;SDS011;2175;51.018;6.994;2023-03-13T04:14:15;2.60;;;1.27;;
4323;SDS011;2175;51.018;6.994;2023-03-13T04:16:40;1.80;;;1.17;;
4323;SDS011;2175;51.018;6.994;2023-03-13T04:19:06;2.97;;;1.30;;
4323;SDS011;2175;51.018;6.994;2023-03-13T04:21:31;2.50;;;1.20;;
4323;SDS011;2175;51.018;6.994;2023-03-13T04:23:57;4.50;;;0.97;;
4323;SDS011;2175;51.018;6.994;2023-03-13T04:28:53;1.50;;;1.20;;
4323;SDS011;2175;51.018;6.994;2023-03-13T04:31:19;1.80;;;1.10;;
4323;SDS011;2175;51.018;6.994;2023-03-13T04:33:44;1.20;;;1.00;;
4323;SDS011;2175;51.018;6.994;2023-03-13T04:36:10;2.27;;;1.20;;
4323;SDS011;2175;51.018;6.994;2023-03-13T04:38:36;1.80;;;1.27;;
4323;SDS011;2175;51.018;6.994;2023-03-13T04:41:18;2.97;;;1.50;;
4323;SDS011;2175;51.018;6.994;2023-03-13T04:43:43;2.40;;;1.30;;
4323;SDS011;2175;51.018;6.994;2023-03-13T04:46:09;2.40;;;1.20;;
4323;SDS011;2175;51.018;6.994;2023-03-13T04:51:29;2.20;;;1.50;;
4323;SDS011;2175;51.018;6.994;2023-03-13T04:53:55;1.60;;;1.10;;
4323;SDS011;2175;51.018;6.994;2023-03-13T04:56:24;2.00;;;1.50;;
4323;SDS011;2175;51.018;6.994;2023-03-13T04:58:51;2.60;;;1.57;;
4323;SDS011;2175;51.018;6.994;2023-03-13T05:01:17;2.13;;;1.43;;
4323;SDS011;2175;51.018;6.994;2023-03-13T05:03:43;1.93;;;1.47;;
4323;SDS011;2175;51.018;6.994;2023-03-13T05:06:09;2.17;;;1.10;;
4323;SDS011;2175;51.018;6.994;2023-03-13T05:08:35;4.03;;;1.40;;
4323;SDS011;2175;51.018;6.994;2023-03-13T05:11:01;1.40;;;1.30;;
4323;SDS011;2175;51.018;6.994;2023-03-13T05:13:27;2.33;;;1.13;;
4323;SDS011;2175;51.018;6.994;2023-03-13T05:15:53;2.20;;;1.10;;
4323;SDS011;2175;51.018;6.994;2023-03-13T05:18:18;2.37;;;1.20;;
4323;SDS011;2175;51.018;6.994;2023-03-13T05:20:44;1.53;;;1.13;;
4323;SDS011;2175;51.018;6.994;2023-03-13T05:23:10;4.33;;;1.20;;
4323;SDS011;2175;51.018;6.994;2023-03-13T05:25:35;1.50;;;1.07;;
4323;SDS011;2175;51.018;6.994;2023-03-13T05:28:01;1.80;;;1.07;;
4323;SDS011;2175;51.018;6.994;2023-03-13T05:30:27;2.33;;;1.27;;
4323;SDS011;2175;51.018;6.994;2023-03-13T05:32:53;2.30;;;1.20;;
4323;SDS011;2175;51.018;6.994;2023-03-13T05:35:18;2.90;;;1.00;;
4323;SDS011;2175;51.018;6.994;2023-03-13T05:40:33;1.60;;;1.30;;
4323;SDS011;2175;51.018;6.994;2023-03-13T05:42:58;3.60;;;1.30;;
4323;SDS011;2175;51.018;6.994;2023-03-13T05:45:24;2.40;;;1.27;;
4323;SDS011;2175;51.018;6.994;2023-03-13T05:47:50;2.10;;;1.20;;
4323;SDS011;2175;51.018;6.994;2023-03-13T05:50:15;1.80;;;1.40;;
4323;SDS011;2175;51.018;6.994;2023-03-13T05:52:41;3.00;;;1.43;;
4323;SDS011;2175;51.018;6.994;2023-03-13T05:55:07;3.00;;;1.40;;
4323;SDS011;2175;51.018;6.994;2023-03-13T05:57:34;2.60;;;1.23;;
4323;SDS011;2175;51.018;6.994;2023-03-13T06:00:03;8.10;;;1.40;;
4323;SDS011;2175;51.018;6.994;2023-03-13T06:02:34;2.00;;;1.50;;
4323;SDS011;2175;51.018;6.994;2023-03-13T06:05:00;3.60;;;1.30;;
4323;SDS011;2175;51.018;6.994;2023-03-13T06:07:26;1.63;;;1.30;;
4323;SDS011;2175;51.018;6.994;2023-03-13T06:09:51;1.57;;;1.30;;
4323;SDS011;2175;51.018;6.994;2023-03-13T06:12:18;2.83;;;1.40;;
4323;SDS011;2175;51.018;6.994;2023-03-13T06:14:44;1.83;;;1.50;;
4323;SDS011;2175;51.018;6.994;2023-03-13T06:17:12;3.37;;;1.60;;
4323;SDS011;2175;51.018;6.994;2023-03-13T06:19:38;2.00;;;1.30;;
4323;SDS011;2175;51.018;6.994;2023-03-13T06:22:03;2.20;;;1.40;;
4323;SDS011;2175;51.018;6.994;2023-03-13T06:24:29;2.77;;;1.30;;
4323;SDS011;2175;51.018;6.994;2023-03-13T06:26:55;2.03;;;1.20;;
4323;SDS011;2175;51.018;6.994;2023-03-13T06:29:20;3.87;;;1.80;;
4323;SDS011;2175;51.018;6.994;2023-03-13T06:31:48;2.37;;;1.50;;
4323;SDS011;2175;51.018;6.994;2023-03-13T06:34:14;3.03;;;1.43;;
4323;SDS011;2175;51.018;6.994;2023-03-13T06:36:39;3.00;;;1.57;;
4323;SDS011;2175;51.018;6.994;2023-03-13T06:39:05;3.93;;;1.43;;
4323;SDS011;2175;51.018;6.994;2023-03-13T06:41:37;2.17;;;1.30;;
4323;SDS011;2175;51.018;6.994;2023-03-13T06:44:03;2.80;;;1.67;;
4323;SDS011;2175;51.018;6.994;2023-03-13T06:46:29;4.27;;;1.50;;
4323;SDS011;2175;51.018;6.994;2023-03-13T06:48:56;2.83;;;1.40;;
4323;SDS011;2175;51.018;6.994;2023-03-13T06:51:23;4.93;;;1.57;;
4323;SDS011;2175;51.018;6.994;2023-03-13T06:53:53;7.73;;;1.70;;
4323;SDS011;2175;51.018;6.994;2023-03-13T06:56:21;5.20;;;1.60;;
4323;SDS011;2175;51.018;6.994;2023-03-13T06:58:48;2.83;;;1.83;;
4323;SDS011;2175;51.018;6.994;2023-03-13T07:01:15;1.90;;;1.43;;
4323;SDS011;2175;51.018;6.994;2023-03-13T07:03:41;3.30;;;1.60;;
4323;SDS011;2175;51.018;6.994;2023-03-13T07:06:08;2.80;;;1.47;;
4323;SDS011;2175;51.018;6.994;2023-03-13T07:08:44;2.20;;;1.70;;
4323;SDS011;2175;51.018;6.994;2023-03-13T07:11:32;2.20;;;1.50;;
4323;SDS011;2175;51.018;6.994;2023-03-13T07:14:03;1.70;;;1.30;;
4323;SDS011;2175;51.018;6.994;2023-03-13T07:16:28;7.03;;;1.90;;
4323;SDS011;2175;51.018;6.994;2023-03-13T07:18:54;5.23;;;1.90;;
4323;SDS011;2175;51.018;6.994;2023-03-13T07:21:20;4.60;;;1.90;;
4323;SDS011;2175;51.018;6.994;2023-03-13T07:23:45;12.50;;;2.20;;
4323;SDS011;2175;51.018;6.994;2023-03-13T07:26:12;4.70;;;2.50;;
4323;SDS011;2175;51.018;6.994;2023-03-13T07:28:39;3.83;;;1.90;;
4323;SDS011;2175;51.018;6.994;2023-03-13T07:31:12;11.53;;;2.60;;
4323;SDS011;2175;51.018;6.994;2023-03-13T07:33:38;5.23;;;2.20;;
4323;SDS011;2175;51.018;6.994;2023-03-13T07:36:05;4.80;;;2.60;;
4323;SDS011;2175;51.018;6.994;2023-03-13T07:38:31;4.40;;;2.30;;
4323;SDS011;2175;51.018;6.994;2023-03-13T07:40:57;3.83;;;2.40;;
4323;SDS011;2175;51.018;6.994;2023-03-13T07:43:23;5.83;;;2.53;;
4323;SDS011;2175;51.018;6.994;2023-03-13T07:45:53;6.23;;;2.50;;
4323;SDS011;2175;51.018;6.994;2023-03-13T07:48:19;8.60;;;2.87;;
4323;SDS011;2175;51.018;6.994;2023-03-13T07:50:55;3.90;;;2.40;;
4323;SDS011;2175;51.018;6.994;2023-03-13T07:53:21;7.33;;;3.00;;
4323;SDS011;2175;51.018;6.994;2023-03-13T07:56:06;8.90;;;3.20;;
4323;SDS011;2175;51.018;6.994;2023-03-13T07:58:35;5.63;;;3.10;;
4323;SDS011;2175;51.018;6.994;2023-03-13T08:03:35;9.27;;;2.83;;
4323;SDS011;2175;51.018;6.994;2023-03-13T08:06:02;5.00;;;3.00;;
4323;SDS011;2175;51.018;6.994;2023-03-13T08:08:29;9.17;;;2.87;;
4323;SDS011;2175;51.018;6.994;2023-03-13T08:11:18;6.97;;;2.87;;
4323;SDS011;2175;51.018;6.994;2023-03-13T08:13:46;7.77;;;3.00;;
4323;SDS011;2175;51.018;6.994;2023-03-13T08:16:22;5.93;;;3.20;;
4323;SDS011;2175;51.018;6.994;2023-03-13T08:18:53;8.90;;;3.30;;
4323;SDS011;2175;51.018;6.994;2023-03-13T08:21:22;5.93;;;2.60;;
4323;SDS011;2175;51.018;6.994;2023-03-13T08:24:03;4.83;;;2.53;;
4323;SDS011;2175;51.018;6.994;2023-03-13T08:26:32;8.40;;;3.30;;
4323;SDS011;2175;51.018;6.994;2023-03-13T08:29:00;9.03;;;2.73;;
4323;SDS011;2175;51.018;6.994;2023-03-13T08:31:33;5.90;;;3.00;;
4323;SDS011;2175;51.018;6.994;2023-03-13T08:34:11;15.60;;;3.60;;
4323;SDS011;2175;51.018;6.994;2023-03-13T08:36:38;10.97;;;3.57;;
4323;SDS011;2175;51.018;6.994;2023-03-13T08:39:05;6.87;;;2.90;;
4323;SDS011;2175;51.018;6.994;2023-03-13T08:41:35;14.40;;;3.40;;
4323;SDS011;2175;51.018;6.994;2023-03-13T08:44:03;7.83;;;3.53;;
4323;SDS011;2175;51.018;6.994;2023-03-13T08:46:33;10.43;;;2.90;;
4323;SDS011;2175;51.018;6.994;2023-03-13T08:49:04;9.67;;;3.20;;
4323;SDS011;2175;51.018;6.994;2023-03-13T08:51:34;8.90;;;3.50;;
4323;SDS011;2175;51.018;6.994;2023-03-13T08:54:02;7.80;;;2.63;;
4323;SDS011;2175;51.018;6.994;2023-03-13T08:56:28;12.33;;;3.40;;
4323;SDS011;2175;51.018;6.994;2023-03-13T08:59:13;6.83;;;3.30;;
4323;SDS011;2175;51.018;6.994;2023-03-13T09:01:54;8.50;;;3.33;;
4323;SDS011;2175;51.018;6.994;2023-03-13T09:04:20;10.13;;;3.27;;
4323;SDS011;2175;51.018;6.994;2023-03-13T09:06:45;6.03;;;2.83;;
4323;SDS011;2175;51.018;6.994;2023-03-13T09:09:12;7.63;;;3.10;;
4323;SDS011;2175;51.018;6.994;2023-03-13T09:11:40;10.00;;;3.10;;
4323;SDS011;2175;51.018;6.994;2023-03-13T09:14:06;5.40;;;2.90;;
4323;SDS011;2175;51.018;6.994;2023-03-13T09:16:33;9.03;;;2.90;;
4323;SDS011;2175;51.018;6.994;2023-03-13T09:19:00;7.03;;;3.47;;
4323;SDS011;2175;51.018;6.994;2023-03-13T09:21:27;8.37;;;2.90;;
4323;SDS011;2175;51.018;6.994;2023-03-13T09:23:57;6.90;;;2.70;;
4323;SDS011;2175;51.018;6.994;2023-03-13T09:26:23;10.87;;;3.23;;
4323;SDS011;2175;51.018;6.994;2023-03-13T09:28:50;9.87;;;3.20;;
4323;SDS011;2175;51.018;6.994;2023-03-13T09:31:20;7.73;;;3.20;;
4323;SDS011;2175;51.018;6.994;2023-03-13T09:33:50;11.13;;;3.10;;
4323;SDS011;2175;51.018;6.994;2023-03-13T09:36:16;4.67;;;2.90;;
4323;SDS011;2175;51.018;6.994;2023-03-13T09:38:43;7.97;;;2.67;;
4323;SDS011;2175;51.018;6.994;2023-03-13T09:46:24;4.00;;;2.60;;
4323;SDS011;2175;51.018;6.994;2023-03-13T09:48:59;6.30;;;2.50;;
4323;SDS011;2175;51.018;6.994;2023-03-13T09:51:32;6.50;;;2.57;;
4323;SDS011;2175;51.018;6.994;2023-03-13T09:56:59;10.17;;;2.60;;
4323;SDS011;2175;51.018;6.994;2023-03-13T10:02:32;6.70;;;2.83;;
4323;SDS011;2175;51.018;6.994;2023-03-13T10:07:31;4.27;;;2.40;;
4323;SDS011;2175;51.018;6.994;2023-03-13T10:09:58;5.93;;;2.37;;
4323;SDS011;2175;51.018;6.994;2023-03-13T10:12:28;4.80;;;2.23;;
4323;SDS011;2175;51.018;6.994;2023-03-13T10:17:45;4.37;;;2.10;;
4323;SDS011;2175;51.018;6.994;2023-03-13T10:22:53;6.50;;;2.53;;
4323;SDS011;2175;51.018;6.994;2023-03-13T10:25:34;7.63;;;2.27;;
4323;SDS011;2175;51.018;6.994;2023-03-13T10:28:02;3.07;;;1.80;;
4323;SDS011;2175;51.018;6.994;2023-03-13T10:30:30;4.57;;;1.83;;
4323;SDS011;2175;51.018;6.994;2023-03-13T10:33:16;2.77;;;1.63;;
4323;SDS011;2175;51.018;6.994;2023-03-13T10:35:44;3.87;;;2.00;;
4323;SDS011;2175;51.018;6.994;2023-03-13T10:38:11;3.27;;;1.97;;
4323;SDS011;2175;51.018;6.994;2023-03-13T10:40:38;3.87;;;2.10;;
4323;SDS011;2175;51.018;6.994;2023-03-13T10:43:16;2.80;;;1.97;;
4323;SDS011;2175;51.018;6.994;2023-03-13T10:45:43;7.90;;;2.00;;
4323;SDS011;2175;51.018;6.994;2023-03-13T10:50:43;9.20;;;1.73;;
4323;SDS011;2175;51.018;6.994;2023-03-13T10:53:23;2.83;;;1.40;;
4323;SDS011;2175;51.018;6.994;2023-03-13T10:58:40;2.13;;;1.57;;
4323;SDS011;2175;51.018;6.994;2023-03-13T11:01:23;5.03;;;1.60;;
4323;SDS011;2175;51.018;6.994;2023-03-13T11:03:51;2.43;;;1.40;;
4323;SDS011;2175;51.018;6.994;2023-03-13T11:06:37;2.60;;;1.70;;
4323;SDS011;2175;51.018;6.994;2023-03-13T11:11:44;5.43;;;1.77;;
4323;SDS011;2175;51.018;6.994;2023-03-13T11:14:22;1.77;;;1.30;;
4323;SDS011;2175;51.018;6.994;2023-03-13T11:35:59;1.80;;;1.30;;
4323;SDS011;2175;51.018;6.994;2023-03-13T11:38:35;4.00;;;1.40;;
4323;SDS011;2175;51.018;6.994;2023-03-13T11:50:39;1.80;;;1.20;;
4323;SDS011;2175;51.018;6.994;2023-03-13T11:56:31;2.17;;;1.30;;
4323;SDS011;2175;51.018;6.994;2023-03-13T12:01:45;5.23;;;1.20;;
4323;SDS011;2175;51.018;6.994;2023-03-13T12:07:01;4.40;;;1.23;;
4323;SDS011;2175;51.018;6.994;2023-03-13T12:09:32;1.80;;;1.20;;
4323;SDS011;2175;51.018;6.994;2023-03-13T12:17:41;1.87;;;1.30;;
4323;SDS011;2175;51.018;6.994;2023-03-13T12:20:18;3.07;;;1.40;;
4323;SDS011;2175;51.018;6.994;2023-03-13T12:36:56;2.10;;;1.17;;
4323;SDS011;2175;51.018;6.994;2023-03-13T12:39:33;1.50;;;1.10;;
4323;SDS011;2175;51.018;6.994;2023-03-13T12:45:05;1.93;;;1.40;;
4323;SDS011;2175;51.018;6.994;2023-03-13T12:47:33;3.10;;;1.50;;
4323;SDS011;2175;51.018;6.994;2023-03-13T12:56:19;1.60;;;1.20;;
4323;SDS011;2175;51.018;6.994;2023-03-13T12:59:13;1.90;;;1.20;;
4323;SDS011;2175;51.018;6.994;2023-03-13T13:01:57;2.70;;;1.10;;
4323;SDS011;2175;51.018;6.994;2023-03-13T13:04:27;3.40;;;1.20;;
4323;SDS011;2175;51.018;6.994;2023-03-13T13:09:31;2.13;;;1.30;;
4323;SDS011;2175;51.018;6.994;2023-03-13T13:17:25;3.73;;;1.20;;
4323;SDS011;2175;51.018;6.994;2023-03-13T13:20:26;2.20;;;1.20;;
4323;SDS011;2175;51.018;6.994;2023-03-13T13:22:54;4.23;;;1.50;;
4323;SDS011;2175;51.018;6.994;2023-03-13T13:25:29;2.70;;;1.50;;
4323;SDS011;2175;51.018;6.994;2023-03-13T13:30:39;2.47;;;1.50;;
4323;SDS011;2175;51.018;6.994;2023-03-13T13:35:43;1.37;;;1.27;;
4323;SDS011;2175;51.018;6.994;2023-03-13T13:38:29;2.80;;;1.63;;
4323;SDS011;2175;51.018;6.994;2023-03-13T13:51:41;1.80;;;1.50;;
4323;SDS011;2175;51.018;6.994;2023-03-13T13:54:32;3.07;;;1.60;;
4323;SDS011;2175;51.018;6.994;2023-03-13T13:57:21;2.33;;;1.43;;
4323;SDS011;2175;51.018;6.994;2023-03-13T13:59:58;1.93;;;1.40;;
4323;SDS011;2175;51.018;6.994;2023-03-13T14:02:49;3.60;;;1.70;;
4323;SDS011;2175;51.018;6.994;2023-03-13T14:05:18;1.73;;;1.43;;
4323;SDS011;2175;51.018;6.994;2023-03-13T14:13:36;2.20;;;1.23;;
4323;SDS011;2175;51.018;6.994;2023-03-13T14:15:54;2.10;;;1.60;;
4323;SDS011;2175;51.018;6.994;2023-03-13T14:18:24;1.70;;;1.40;;
4323;SDS011;2175;51.018;6.994;2023-03-13T14:20:55;2.80;;;1.50;;
4323;SDS011;2175;51.018;6.994;2023-03-13T14:25:54;2.00;;;1.53;;
4323;SDS011;2175;51.018;6.994;2023-03-13T14:28:23;1.77;;;1.40;;
4323;SDS011;2175;51.018;6.994;2023-03-13T14:30:54;2.57;;;1.30;;
4323;SDS011;2175;51.018;6.994;2023-03-13T14:33:22;3.43;;;1.23;;
4323;SDS011;2175;51.018;6.994;2023-03-13T14:35:51;2.90;;;1.70;;
4323;SDS011;2175;51.018;6.994;2023-03-13T14:40:44;3.30;;;1.50;;
4323;SDS011;2175;51.018;6.994;2023-03-13T14:43:27;1.87;;;1.30;;
4323;SDS011;2175;51.018;6.994;2023-03-13T14:46:12;2.03;;;1.40;;
4323;SDS011;2175;51.018;6.994;2023-03-13T14:51:19;2.00;;;1.30;;
4323;SDS011;2175;51.018;6.994;2023-03-13T14:56:38;3.67;;;1.20;;
4323;SDS011;2175;51.018;6.994;2023-03-13T14:59:16;4.90;;;1.47;;
4323;SDS011;2175;51.018;6.994;2023-03-13T15:01:56;1.87;;;1.20;;
4323;SDS011;2175;51.018;6.994;2023-03-13T15:04:53;1.97;;;1.37;;
4323;SDS011;2175;51.018;6.994;2023-03-13T15:07:23;3.53;;;1.33;;
4323;SDS011;2175;51.018;6.994;2023-03-13T15:09:51;7.47;;;1.40;;
4323;SDS011;2175;51.018;6.994;2023-03-13T15:12:20;6.20;;;1.70;;
4323;SDS011;2175;51.018;6.994;2023-03-13T15:14:48;2.53;;;1.40;;
4323;SDS011;2175;51.018;6.994;2023-03-13T15:17:19;3.63;;;1.40;;
4323;SDS011;2175;51.018;6.994;2023-03-13T15:19:51;1.73;;;1.30;;
4323;SDS011;2175;51.018;6.994;2023-03-13T15:22:21;3.70;;;1.67;;
4323;SDS011;2175;51.018;6.994;2023-03-13T15:24:55;2.10;;;1.40;;
4323;SDS011;2175;51.018;6.994;2023-03-13T15:27:24;6.53;;;1.37;;
4323;SDS011;2175;51.018;6.994;2023-03-13T15:29:53;2.17;;;1.13;;
4323;SDS011;2175;51.018;6.994;2023-03-13T15:32:25;2.50;;;1.30;;
4323;SDS011;2175;51.018;6.994;2023-03-13T15:34:55;1.83;;;1.23;;
4323;SDS011;2175;51.018;6.994;2023-03-13T15:37:23;2.47;;;1.30;;
4323;SDS011;2175;51.018;6.994;2023-03-13T15:39:50;1.97;;;1.37;;
4323;SDS011;2175;51.018;6.994;2023-03-13T15:42:15;5.97;;;1.70;;
4323;SDS011;2175;51.018;6.994;2023-03-13T15:44:41;1.97;;;1.37;;
4323;SDS011;2175;51.018;6.994;2023-03-13T15:47:13;2.40;;;1.30;;
4323;SDS011;2175;51.018;6.994;2023-03-13T15:49:44;2.40;;;1.47;;
4323;SDS011;2175;51.018;6.994;2023-03-13T15:52:14;3.13;;;1.60;;
4323;SDS011;2175;51.018;6.994;2023-03-13T15:54:47;3.17;;;1.40;;
4323;SDS011;2175;51.018;6.994;2023-03-13T15:57:14;4.30;;;1.60;;
4323;SDS011;2175;51.018;6.994;2023-03-13T15:59:51;3.13;;;1.40;;
4323;SDS011;2175;51.018;6.994;2023-03-13T16:02:19;2.60;;;1.40;;
4323;SDS011;2175;51.018;6.994;2023-03-13T16:04:46;7.23;;;1.63;;
4323;SDS011;2175;51.018;6.994;2023-03-13T16:07:19;2.30;;;1.40;;
4323;SDS011;2175;51.018;6.994;2023-03-13T16:09:45;4.33;;;1.47;;
4323;SDS011;2175;51.018;6.994;2023-03-13T16:12:14;4.10;;;1.90;;
4323;SDS011;2175;51.018;6.994;2023-03-13T16:14:40;5.47;;;1.87;;
4323;SDS011;2175;51.018;6.994;2023-03-13T16:17:13;5.13;;;1.90;;
4323;SDS011;2175;51.018;6.994;2023-03-13T16:19:41;7.70;;;1.70;;
4323;SDS011;2175;51.018;6.994;2023-03-13T16:22:07;6.57;;;2.10;;
4323;SDS011;2175;51.018;6.994;2023-03-13T16:24:33;5.03;;;1.70;;
4323;SDS011;2175;51.018;6.994;2023-03-13T16:26:58;6.30;;;2.20;;
4323;SDS011;2175;51.018;6.994;2023-03-13T16:29:24;3.83;;;1.93;;
4323;SDS011;2175;51.018;6.994;2023-03-13T16:31:50;3.73;;;1.83;;
4323;SDS011;2175;51.018;6.994;2023-03-13T16:34:16;4.30;;;1.90;;
4323;SDS011;2175;51.018;6.994;2023-03-13T16:36:42;8.43;;;2.00;;
4323;SDS011;2175;51.018;6.994;2023-03-13T16:39:13;5.40;;;2.00;;
4323;SDS011;2175;51.018;6.994;2023-03-13T16:41:39;3.97;;;1.77;;
4323;SDS011;2175;51.018;6.994;2023-03-13T16:47:16;10.93;;;2.23;;
4323;SDS011;2175;51.018;6.994;2023-03-13T17:24:11;9.97;;;2.73;;
4323;SDS011;2175;51.018;6.994;2023-03-13T17:34:17;6.50;;;2.00;;
4323;SDS011;2175;51.018;6.994;2023-03-13T17:36:45;6.00;;;2.13;;
4323;SDS011;2175;51.018;6.994;2023-03-13T17:39:15;4.00;;;2.10;;
4323;SDS011;2175;51.018;6.994;2023-03-13T17:45:43;8.10;;;2.30;;
4323;SDS011;2175;51.018;6.994;2023-03-13T17:48:10;6.33;;;2.30;;
4323;SDS011;2175;51.018;6.994;2023-03-13T17:50:37;11.67;;;2.90;;
4323;SDS011;2175;51.018;6.994;2023-03-13T17:53:03;12.33;;;2.10;;
4323;SDS011;2175;51.018;6.994;2023-03-13T17:55:29;7.47;;;2.10;;
4323;SDS011;2175;51.018;6.994;2023-03-13T17:57:55;3.77;;;2.13;;
4323;SDS011;2175;51.018;6.994;2023-03-13T18:00:25;8.00;;;2.43;;
4323;SDS011;2175;51.018;6.994;2023-03-13T18:02:55;5.20;;;2.40;;
4323;SDS011;2175;51.018;6.994;2023-03-13T18:05:22;6.80;;;2.53;;
4323;SDS011;2175;51.018;6.994;2023-03-13T18:07:48;10.90;;;2.70;;
4323;SDS011;2175;51.018;6.994;2023-03-13T18:12:42;9.50;;;2.40;;
4323;SDS011;2175;51.018;6.994;2023-03-13T18:15:08;6.47;;;2.30;;
4323;SDS011;2175;51.018;6.994;2023-03-13T18:17:34;5.70;;;2.70;;
4323;SDS011;2175;51.018;6.994;2023-03-13T18:19:59;10.40;;;2.20;;
4323;SDS011;2175;51.018;6.994;2023-03-13T18:22:25;7.70;;;2.60;;
4323;SDS011;2175;51.018;6.994;2023-03-13T18:24:51;6.50;;;2.67;;
4323;SDS011;2175;51.018;6.994;2023-03-13T18:27:17;5.97;;;2.60;;
4323;SDS011;2175;51.018;6.994;2023-03-13T18:29:45;4.93;;;2.30;;
4323;SDS011;2175;51.018;6.994;2023-03-13T18:32:13;9.40;;;2.83;;
4323;SDS011;2175;51.018;6.994;2023-03-13T18:34:41;9.03;;;2.80;;
4323;SDS011;2175;51.018;6.994;2023-03-13T18:37:18;8.20;;;2.83;;
4323;SDS011;2175;51.018;6.994;2023-03-13T18:39:47;8.33;;;2.53;;
4323;SDS011;2175;51.018;6.994;2023-03-13T18:42:16;7.03;;;2.47;;
4323;SDS011;2175;51.018;6.994;2023-03-13T18:44:42;5.10;;;2.37;;
4323;SDS011;2175;51.018;6.994;2023-03-13T18:47:09;7.03;;;2.40;;
4323;SDS011;2175;51.018;6.994;2023-03-13T18:49:39;6.93;;;2.60;;
4323;SDS011;2175;51.018;6.994;2023-03-13T18:52:05;8.70;;;2.90;;
4323;SDS011;2175;51.018;6.994;2023-03-13T18:54:31;7.33;;;2.90;;
4323;SDS011;2175;51.018;6.994;2023-03-13T18:56:57;11.07;;;3.27;;
4323;SDS011;2175;51.018;6.994;2023-03-13T18:59:23;4.53;;;2.73;;
4323;SDS011;2175;51.018;6.994;2023-03-13T19:01:50;10.17;;;2.83;;
4323;SDS011;2175;51.018;6.994;2023-03-13T19:04:15;7.20;;;2.43;;
4323;SDS011;2175;51.018;6.994;2023-03-13T19:06:42;5.13;;;2.50;;